Time;durP1;ratioP1;P1;durP2;ratioP2;P2;SDS_P1;SDS_P2;PMS_P1;PMS_P2;Temp;Humidity;BMP_temperature;BMP_pressure;BME280_temperature;BME280_humidity;BME280_pressure;Samples;Min_cycle;Max_cycle;Signal;HPM_P1;HPM_P2
2022/04/18 00:01:48;;;;;;;7.97;2.95;;;9.50;60.00;;;;;;5035187;28;20026;-74
2022/04/18 00:04:14;;;;;;;6.70;3.47;;;9.50;59.40;;;;;;5035291;28;20025;-74
2022/04/18 00:06:40;;;;;;;7.25;3.13;;;9.50;60.10;;;;;;5017629;28;20407;-75
2022/04/18 00:09:06;;;;;;;7.20;3.88;;;9.40;60.20;;;;;;5035237;28;20104;-75
2022/04/18 00:11:32;;;;;;;7.10;3.05;;;9.40;60.70;;;;;;5035148;28;20033;-75
2022/04/18 00:13:57;;;;;;;10.23;3.67;;;9.40;60.10;;;;;;5035343;28;20029;-75
2022/04/18 00:16:23;;;;;;;5.97;3.45;;;9.30;60.60;;;;;;5035409;28;20054;-74
2022/04/18 00:18:49;;;;;;;7.47;3.10;;;9.30;61.00;;;;;;5035090;28;20052;-75
2022/04/18 00:21:15;;;;;;;10.50;3.92;;;9.30;61.30;;;;;;5034929;28;20033;-75
2022/04/18 00:23:42;;;;;;;11.48;3.63;;;9.30;60.90;;;;;;5034964;28;20037;-75
2022/04/18 00:26:07;;;;;;;7.70;3.55;;;9.30;61.20;;;;;;5035455;28;20028;-75
2022/04/18 00:28:33;;;;;;;12.63;3.55;;;9.20;62.10;;;;;;5034924;28;20022;-75
2022/04/18 00:30:58;;;;;;;7.30;2.92;;;9.30;61.10;;;;;;5035184;28;20364;-75
2022/04/18 00:33:25;;;;;;;11.20;3.42;;;9.20;61.50;;;;;;5035283;28;20439;-75
2022/04/18 00:35:51;;;;;;;10.32;4.05;;;9.30;61.00;;;;;;5035048;28;20105;-75
2022/04/18 00:38:17;;;;;;;12.70;3.53;;;9.30;61.00;;;;;;5035074;28;20034;-75
2022/04/18 00:40:43;;;;;;;8.90;4.05;;;9.20;61.40;;;;;;5035486;28;20031;-75
2022/04/18 00:43:09;;;;;;;8.60;3.92;;;9.20;62.20;;;;;;5017328;28;20471;-74
2022/04/18 00:45:34;;;;;;;10.27;4.38;;;9.20;62.40;;;;;;5035008;28;20533;-75
2022/04/18 00:48:00;;;;;;;8.00;3.25;;;9.10;62.90;;;;;;5034767;28;20022;-75
2022/04/18 00:50:27;;;;;;;11.20;3.78;;;9.10;62.80;;;;;;5034631;28;20148;-75
2022/04/18 00:52:54;;;;;;;8.48;3.53;;;9.10;62.80;;;;;;5034884;28;20036;-75
2022/04/18 00:55:23;;;;;;;9.75;3.53;;;9.10;62.60;;;;;;5034703;28;20030;-76
2022/04/18 00:57:49;;;;;;;9.60;3.67;;;9.10;62.60;;;;;;5034513;28;20060;-75
2022/04/18 01:00:15;;;;;;;7.60;3.58;;;9.10;63.20;;;;;;5034041;28;20033;-74
2022/04/18 01:02:41;;;;;;;8.15;3.30;;;9.10;62.60;;;;;;5016600;28;20026;-74
2022/04/18 01:05:07;;;;;;;7.05;3.30;;;9.10;62.70;;;;;;5034620;28;20383;-74
2022/04/18 01:07:34;;;;;;;7.05;3.47;;;9.10;63.10;;;;;;5034164;28;20030;-74
2022/04/18 01:10:01;;;;;;;6.18;3.38;;;9.10;63.20;;;;;;5034352;28;20045;-74
2022/04/18 01:12:26;;;;;;;7.60;3.85;;;9.10;63.30;;;;;;5034676;28;20029;-74
2022/04/18 01:14:52;;;;;;;8.27;4.60;;;9.10;63.80;;;;;;5034338;28;20025;-74
2022/04/18 01:17:18;;;;;;;11.02;3.92;;;9.10;64.40;;;;;;5034360;28;20429;-74
2022/04/18 01:19:43;;;;;;;5.05;3.28;;;9.10;63.80;;;;;;5034454;28;20037;-74
2022/04/18 01:22:09;;;;;;;7.72;3.25;;;9.10;63.60;;;;;;5016199;28;20367;-74
2022/04/18 01:30:06;;;;;;;11.15;4.55;;;9.10;64.40;;;;;;5035606;28;20040;-74
2022/04/18 01:32:32;;;;;;;7.78;4.10;;;9.10;64.60;;;;;;5016361;28;20390;-74
2022/04/18 01:34:57;;;;;;;9.90;3.97;;;9.20;64.70;;;;;;5034897;28;20033;-74
2022/04/18 01:37:23;;;;;;;9.57;4.20;;;9.20;66.40;;;;;;5016717;28;20466;-73
2022/04/18 01:39:49;;;;;;;13.10;4.60;;;9.20;65.60;;;;;;5034188;28;20021;-74
2022/04/18 01:42:15;;;;;;;8.93;3.80;;;9.30;64.20;;;;;;5034255;28;20033;-73
2022/04/18 01:44:41;;;;;;;8.25;4.40;;;9.30;64.70;;;;;;5016690;28;20021;-73
2022/04/18 01:47:07;;;;;;;10.23;4.13;;;9.30;64.80;;;;;;5034268;28;20025;-73
2022/04/18 01:49:32;;;;;;;8.63;4.03;;;9.30;65.60;;;;;;5016111;28;20018;-73
2022/04/18 01:51:58;;;;;;;8.48;4.63;;;9.20;65.30;;;;;;5034172;28;20032;-73
2022/04/18 01:54:24;;;;;;;11.23;4.85;;;9.20;69.20;;;;;;5033882;28;20395;-73
2022/04/18 01:56:49;;;;;;;9.10;3.83;;;9.20;67.00;;;;;;5034311;28;20035;-73
2022/04/18 01:59:15;;;;;;;9.70;4.40;;;9.10;67.00;;;;;;5033876;28;20025;-73
2022/04/18 02:01:41;;;;;;;10.15;3.72;;;9.10;68.70;;;;;;5033954;28;20471;-73
2022/04/18 02:04:07;;;;;;;11.57;4.43;;;9.10;68.20;;;;;;5033963;28;20025;-73
2022/04/18 02:06:32;;;;;;;8.55;4.78;;;9.10;68.30;;;;;;5033912;28;20025;-73
2022/04/18 02:08:58;;;;;;;8.38;4.15;;;9.00;68.60;;;;;;5034203;28;20029;-73
2022/04/18 02:11:24;;;;;;;6.25;3.13;;;9.00;69.40;;;;;;5032928;28;20022;-73
2022/04/18 02:13:49;;;;;;;6.57;3.65;;;9.00;69.50;;;;;;5034217;28;20482;-73
2022/04/18 02:16:15;;;;;;;11.52;4.53;;;8.90;70.80;;;;;;5033814;28;20040;-73
2022/04/18 02:18:40;;;;;;;12.35;4.53;;;8.90;70.30;;;;;;5033903;28;20041;-73
2022/04/18 02:21:11;;;;;;;8.23;4.00;;;8.80;72.30;;;;;;5015847;28;20029;-73
2022/04/18 02:23:37;;;;;;;11.15;4.88;;;8.80;71.60;;;;;;5016010;28;20403;-73
2022/04/18 02:26:03;;;;;;;10.85;5.15;;;8.80;73.30;;;;;;5034155;28;20022;-73
2022/04/18 02:28:30;;;;;;;7.50;4.07;;;8.70;73.70;;;;;;5033681;28;20025;-73
2022/04/18 02:30:55;;;;;;;10.73;4.30;;;8.70;73.30;;;;;;5033689;28;20026;-73
2022/04/18 02:33:21;;;;;;;8.88;3.95;;;8.80;73.00;;;;;;5033572;28;20475;-73
2022/04/18 02:35:46;;;;;;;8.45;3.80;;;8.70;73.70;;;;;;5033367;28;20025;-73
2022/04/18 02:38:12;;;;;;;10.32;3.65;;;8.70;73.40;;;;;;5034354;28;20036;-73
2022/04/18 02:40:37;;;;;;;6.00;3.60;;;8.70;73.40;;;;;;5033903;28;20025;-73
2022/04/18 02:43:04;;;;;;;8.00;3.75;;;8.70;75.10;;;;;;5015754;28;20467;-73
2022/04/18 02:45:31;;;;;;;7.47;3.53;;;8.70;75.40;;;;;;5016510;28;20029;-73
2022/04/18 02:47:57;;;;;;;8.10;4.03;;;8.70;74.60;;;;;;5034005;28;20100;-73
2022/04/18 02:50:22;;;;;;;6.90;3.88;;;8.70;74.90;;;;;;5033566;28;20107;-73
2022/04/18 02:52:48;;;;;;;11.00;4.13;;;8.70;75.30;;;;;;5033590;28;20022;-73
2022/04/18 02:55:14;;;;;;;7.65;3.58;;;8.70;76.90;;;;;;5034114;28;20022;-73
2022/04/18 02:57:40;;;;;;;10.77;3.97;;;8.70;76.40;;;;;;5033806;28;20026;-73
2022/04/18 03:00:08;;;;;;;7.15;4.00;;;8.60;78.50;;;;;;5015715;28;20081;-73
2022/04/18 03:02:33;;;;;;;11.98;4.07;;;8.60;77.10;;;;;;5016215;28;20013;-73
2022/04/18 03:04:59;;;;;;;9.68;4.53;;;8.60;78.80;;;;;;5033770;28;20071;-73
2022/04/18 03:07:24;;;;;;;10.35;3.90;;;8.50;77.70;;;;;;5033486;28;20179;-73
2022/04/18 03:09:50;;;;;;;10.32;4.47;;;8.40;79.40;;;;;;5033474;28;20084;-73
2022/04/18 03:12:16;;;;;;;5.63;3.08;;;8.50;79.70;;;;;;5033312;28;20048;-73
2022/04/18 03:14:41;;;;;;;9.57;4.38;;;8.40;80.30;;;;;;5015898;28;20025;-73
2022/04/18 03:17:07;;;;;;;6.13;3.35;;;8.30;81.30;;;;;;5033585;28;20044;-73
2022/04/18 03:19:32;;;;;;;9.05;3.88;;;8.30;80.30;;;;;;5033636;28;20160;-72
2022/04/18 03:21:59;;;;;;;7.90;3.70;;;8.30;81.80;;;;;;5015462;28;20075;-72
2022/04/18 03:24:24;;;;;;;9.73;4.13;;;8.20;83.40;;;;;;5037185;28;20018;-72
2022/04/18 03:26:50;;;;;;;8.27;4.10;;;8.20;83.50;;;;;;5036634;28;20056;-72
2022/04/18 03:29:15;;;;;;;8.70;4.28;;;8.20;84.50;;;;;;5036538;28;20162;-72
2022/04/18 03:31:41;;;;;;;12.23;4.28;;;8.10;86.40;;;;;;5036541;28;20025;-72
2022/04/18 03:34:07;;;;;;;6.55;3.65;;;8.00;87.40;;;;;;5036666;28;20033;-72
2022/04/18 03:42:01;;;;;;;6.25;3.78;;;7.90;88.80;;;;;;5036712;28;20103;-72
2022/04/18 03:44:27;;;;;;;11.68;4.28;;;7.90;90.00;;;;;;5019179;28;20113;-72
2022/04/18 03:46:53;;;;;;;11.05;4.88;;;7.90;90.90;;;;;;5037008;28;20439;-72
2022/04/18 03:49:19;;;;;;;12.57;4.28;;;7.90;90.30;;;;;;5036500;28;20033;-72
2022/04/18 03:51:45;;;;;;;9.27;4.22;;;7.80;91.70;;;;;;5036296;28;20021;-72
2022/04/18 03:54:10;;;;;;;9.02;4.43;;;7.80;90.80;;;;;;5018387;28;20013;-72
2022/04/18 03:56:36;;;;;;;9.80;4.05;;;7.70;92.30;;;;;;5036136;28;20025;-72
2022/04/18 03:59:01;;;;;;;7.57;3.47;;;7.70;92.20;;;;;;5036101;28;20032;-72
2022/04/18 04:01:27;;;;;;;6.82;3.45;;;7.70;92.40;;;;;;5036293;28;20424;-72
2022/04/18 04:03:52;;;;;;;8.55;3.78;;;7.70;92.60;;;;;;5035889;28;20013;-72
2022/04/18 04:06:18;;;;;;;9.77;3.60;;;7.60;93.00;;;;;;5018159;28;20386;-73
2022/04/18 04:08:43;;;;;;;6.07;3.33;;;7.60;92.60;;;;;;5035771;28;20028;-72
2022/04/18 04:11:10;;;;;;;12.00;3.25;;;7.50;93.90;;;;;;5036253;28;20104;-72
2022/04/18 04:13:36;;;;;;;7.55;2.95;;;7.50;94.40;;;;;;5018187;28;20116;-72
2022/04/18 04:16:01;;;;;;;7.20;3.67;;;7.50;94.80;;;;;;5035968;28;20045;-72
2022/04/18 04:18:27;;;;;;;5.20;3.28;;;7.40;95.10;;;;;;5018145;28;20463;-72
2022/04/18 04:20:52;;;;;;;7.25;3.35;;;7.40;94.10;;;;;;5035406;28;20101;-72
2022/04/18 04:23:18;;;;;;;5.65;3.00;;;7.40;95.30;;;;;;5018391;28;20033;-72
2022/04/18 04:25:43;;;;;;;8.48;3.80;;;7.40;94.80;;;;;;5035654;28;20475;-72
2022/04/18 04:28:09;;;;;;;12.15;4.38;;;7.30;95.90;;;;;;5035696;28;20498;-72
2022/04/18 04:30:35;;;;;;;5.75;2.95;;;7.30;96.50;;;;;;5018363;28;20021;-72
2022/04/18 04:33:00;;;;;;;8.00;3.30;;;7.20;96.30;;;;;;5035192;28;20052;-72
2022/04/18 04:35:26;;;;;;;8.18;3.53;;;7.20;97.00;;;;;;5034745;28;20021;-72
2022/04/18 04:37:51;;;;;;;7.95;3.05;;;7.20;97.10;;;;;;5035578;28;20052;-72
2022/04/18 04:40:17;;;;;;;6.88;3.28;;;7.20;98.20;;;;;;5035933;28;20025;-72
2022/04/18 04:42:42;;;;;;;5.50;2.80;;;7.10;97.90;;;;;;5034543;28;20026;-72
2022/04/18 04:45:08;;;;;;;5.82;3.08;;;7.10;98.50;;;;;;5035374;28;20100;-72
2022/04/18 04:47:34;;;;;;;6.78;3.00;;;7.10;97.00;;;;;;5035115;28;20032;-72
2022/04/18 04:50:00;;;;;;;7.18;3.47;;;7.10;96.90;;;;;;5035419;28;20578;-72
2022/04/18 04:52:26;;;;;;;6.40;3.00;;;7.10;97.40;;;;;;5034997;28;20040;-72
2022/04/18 04:54:52;;;;;;;5.32;2.85;;;7.10;97.30;;;;;;5034880;28;20486;-72
2022/04/18 04:57:17;;;;;;;6.53;2.85;;;7.10;97.50;;;;;;5035136;28;20021;-72
2022/04/18 04:59:43;;;;;;;6.35;3.17;;;7.10;98.00;;;;;;5017215;28;20029;-72
2022/04/18 05:02:08;;;;;;;6.38;2.13;;;7.10;98.50;;;;;;5016948;28;20360;-72
2022/04/18 05:04:34;;;;;;;8.15;2.60;;;7.10;99.00;;;;;;5017045;28;20453;-72
2022/04/18 05:07:00;;;;;;;7.00;2.78;;;8.00;98.80;;;;;;5017147;28;20479;-72
2022/04/18 05:09:25;;;;;;;6.28;2.42;;;7.10;98.30;;;;;;5034651;28;20032;-72
2022/04/18 05:11:52;;;;;;;5.90;2.80;;;7.10;98.20;;;;;;5016814;28;20060;-72
2022/04/18 05:14:18;;;;;;;5.88;2.85;;;7.20;97.60;;;;;;5017226;28;20021;-72
2022/04/18 05:16:44;;;;;;;6.18;2.80;;;7.20;98.10;;;;;;5034813;28;20466;-72
2022/04/18 05:19:09;;;;;;;5.47;2.50;;;7.30;98.10;;;;;;5035145;28;20104;-72
2022/04/18 05:21:35;;;;;;;4.07;2.38;;;7.30;97.50;;;;;;5016372;28;20040;-72
2022/04/18 05:24:01;;;;;;;6.35;2.28;;;7.40;96.50;;;;;;5016697;28;20033;-72
2022/04/18 05:26:27;;;;;;;5.53;2.08;;;7.50;96.30;;;;;;5034519;28;20028;-72
2022/04/18 05:28:52;;;;;;;4.85;1.95;;;7.60;95.70;;;;;;5034469;28;20021;-72
2022/04/18 05:31:19;;;;;;;6.00;2.47;;;7.60;95.40;;;;;;5034447;28;20517;-72
2022/04/18 05:33:45;;;;;;;5.57;2.17;;;7.70;95.90;;;;;;5035040;28;20025;-72
2022/04/18 05:36:11;;;;;;;3.95;2.13;;;7.70;94.60;;;;;;5016695;28;20073;-72
2022/04/18 05:38:36;;;;;;;7.45;1.92;;;7.80;95.30;;;;;;5035124;28;20410;-72
2022/04/18 05:41:02;;;;;;;3.70;1.85;;;7.90;94.30;;;;;;5034207;28;20030;-72
2022/04/18 05:43:28;;;;;;;4.95;2.10;;;8.00;92.80;;;;;;5016690;28;20021;-72
2022/04/18 05:45:54;;;;;;;6.20;2.15;;;8.10;92.90;;;;;;5033928;28;20474;-72
2022/04/18 05:48:19;;;;;;;4.22;2.00;;;8.20;92.20;;;;;;5033974;28;20025;-72
2022/04/18 05:50:45;;;;;;;8.10;2.00;;;8.30;91.90;;;;;;5033868;28;20597;-72
2022/04/18 05:53:16;;;;;;;4.55;2.10;;;8.40;90.80;;;;;;5034064;28;20030;-72
2022/04/18 05:55:41;;;;;;;3.30;1.70;;;8.50;90.30;;;;;;5033977;28;20037;-71
2022/04/18 05:58:07;;;;;;;3.70;1.88;;;8.60;89.60;;;;;;5016329;28;20030;-71
2022/04/18 06:00:34;;;;;;;5.63;1.73;;;8.70;91.50;;;;;;5016211;28;20029;-72
2022/04/18 06:03:00;;;;;;;3.42;1.45;;;8.80;90.20;;;;;;5033675;28;20026;-72
2022/04/18 06:05:26;;;;;;;6.50;2.15;;;8.90;88.20;;;;;;5033745;28;20104;-72
2022/04/18 06:07:52;;;;;;;6.38;1.98;;;8.90;86.50;;;;;;5033966;28;20084;-72
2022/04/18 06:10:18;;;;;;;4.55;1.42;;;9.00;86.30;;;;;;5033654;28;20021;-72
2022/04/18 06:12:44;;;;;;;4.60;2.00;;;9.10;84.80;;;;;;5033733;28;20035;-72
2022/04/18 06:15:09;;;;;;;3.83;1.98;;;9.20;84.00;;;;;;5033749;28;20467;-72
2022/04/18 06:17:35;;;;;;;5.95;2.00;;;9.40;81.80;;;;;;5033745;28;20060;-72
2022/04/18 06:20:02;;;;;;;7.90;2.47;;;9.40;80.70;;;;;;5033982;28;20034;-72
2022/04/18 06:22:27;;;;;;;6.90;1.65;;;9.50;82.10;;;;;;5033359;28;20026;-72
2022/04/18 06:24:53;;;;;;;4.18;1.80;;;9.50;81.40;;;;;;5033758;28;20021;-72
2022/04/18 06:27:18;;;;;;;7.28;1.70;;;9.70;81.10;;;;;;5033946;28;20021;-72
2022/04/18 06:29:44;;;;;;;5.38;1.80;;;9.80;80.10;;;;;;5033583;28;20399;-72
2022/04/18 06:32:10;;;;;;;8.88;2.35;;;9.90;79.00;;;;;;5016294;28;20108;-72
2022/04/18 06:34:36;;;;;;;3.45;1.77;;;10.00;78.70;;;;;;5033594;28;20030;-72
2022/04/18 06:37:01;;;;;;;4.18;1.30;;;10.10;78.60;;;;;;5033363;28;20413;-72
2022/04/18 06:39:27;;;;;;;4.10;1.67;;;10.20;76.60;;;;;;5033337;28;20037;-72
2022/04/18 06:41:52;;;;;;;4.95;1.85;;;10.30;76.30;;;;;;5015484;28;20375;-72
2022/04/18 06:44:18;;;;;;;6.63;2.53;;;10.40;74.20;;;;;;5015670;28;20026;-72
2022/04/18 06:46:43;;;;;;;3.60;0.90;;;10.50;74.50;;;;;;5015574;28;20024;-72
2022/04/18 06:49:09;;;;;;;4.20;1.40;;;10.60;73.10;;;;;;5033275;28;20104;-72
2022/04/18 06:51:35;;;;;;;4.85;1.80;;;10.70;72.90;;;;;;5033110;28;20030;-72
2022/04/18 06:54:00;;;;;;;4.43;1.63;;;10.80;73.10;;;;;;5015375;28;20059;-72
2022/04/18 06:59:10;;;;;;;4.43;1.10;;;11.00;71.90;;;;;;5037463;28;20046;-72
2022/04/18 07:01:35;;;;;;;4.32;1.10;;;11.10;71.10;;;;;;5036797;28;20544;-72
2022/04/18 07:04:01;;;;;;;6.13;1.67;;;11.20;69.80;;;;;;5036946;28;20475;-72
2022/04/18 07:06:27;;;;;;;2.58;1.30;;;11.30;69.00;;;;;;5037014;28;20091;-72
2022/04/18 07:08:55;;;;;;;7.35;1.30;;;11.40;68.80;;;;;;5036654;28;20104;-72
2022/04/18 07:11:21;;;;;;;5.63;1.60;;;11.50;68.80;;;;;;5018716;28;20112;-72
2022/04/18 07:13:47;;;;;;;4.13;1.60;;;11.50;69.10;;;;;;5036306;28;20060;-74
2022/04/18 07:16:12;;;;;;;2.97;1.08;;;11.60;69.00;;;;;;5018581;28;20571;-72
2022/04/18 07:18:38;;;;;;;2.30;1.20;;;11.70;68.10;;;;;;5036347;28;20076;-72
2022/04/18 07:21:03;;;;;;;1.65;1.00;;;11.80;68.20;;;;;;5018278;28;20124;-75
2022/04/18 07:23:29;;;;;;;2.58;0.80;;;11.90;67.30;;;;;;5057633;22;20045;-73
2022/04/18 07:25:55;;;;;;;3.30;0.80;;;12.00;65.90;;;;;;5056330;28;20025;-74
2022/04/18 07:28:21;;;;;;;2.63;1.13;;;12.10;65.00;;;;;;5055992;28;20036;-74
2022/04/18 07:30:47;;;;;;;3.05;1.20;;;12.20;65.30;;;;;;5055816;28;20029;-74
2022/04/18 07:33:15;;;;;;;2.00;0.70;;;12.30;64.10;;;;;;5055896;28;20051;-75
2022/04/18 07:35:42;;;;;;;1.77;1.10;;;12.40;64.40;;;;;;5055894;28;20525;-73
2022/04/18 07:40:53;;;;;;;2.65;1.02;;;12.70;65.00;;;;;;5056496;28;20044;-74
2022/04/18 07:43:23;;;;;;;4.43;1.20;;;12.90;64.10;;;;;;5055670;28;20405;-74
2022/04/18 07:45:49;;;;;;;1.77;0.82;;;13.00;63.10;;;;;;5056235;28;20024;-74
2022/04/18 07:48:15;;;;;;;5.90;0.95;;;13.20;62.10;;;;;;5037810;28;20025;-74
2022/04/18 07:53:24;;;;;;;1.23;0.57;;;13.40;61.70;;;;;;5056481;28;20079;-74
2022/04/18 07:55:50;;;;;;;2.35;0.90;;;13.60;60.90;;;;;;5055816;28;20420;-74
2022/04/18 07:58:16;;;;;;;1.73;0.85;;;13.70;59.80;;;;;;5055488;28;20027;-74
2022/04/18 08:00:41;;;;;;;3.72;1.15;;;13.80;58.40;;;;;;5055612;28;20079;-74
2022/04/18 08:03:07;;;;;;;2.40;0.77;;;13.80;58.70;;;;;;5055317;28;20486;-74
2022/04/18 08:05:32;;;;;;;3.63;0.38;;;14.00;59.00;;;;;;5055463;28;20024;-74
2022/04/18 08:07:58;;;;;;;1.85;0.68;;;14.10;60.10;;;;;;5055199;28;20025;-74
2022/04/18 08:10:24;;;;;;;1.27;0.50;;;14.20;58.50;;;;;;5037225;28;20401;-75
2022/04/18 08:12:49;;;;;;;1.60;0.50;;;14.20;57.00;;;;;;5055109;28;20048;-74
2022/04/18 08:15:15;;;;;;;1.25;0.45;;;14.40;56.40;;;;;;5055072;28;20029;-74
2022/04/18 08:17:41;;;;;;;2.47;0.30;;;14.40;56.70;;;;;;5037240;28;20025;-74
2022/04/18 08:20:07;;;;;;;4.63;0.52;;;14.50;57.20;;;;;;5055110;28;20037;-76
2022/04/18 08:22:32;;;;;;;0.75;0.50;;;14.70;58.10;;;;;;5036931;28;20044;-75
2022/04/18 08:24:58;;;;;;;1.85;0.98;;;14.80;58.10;;;;;;5055075;28;20026;-75
2022/04/18 08:27:23;;;;;;;3.40;0.65;;;14.90;57.30;;;;;;5055159;28;20075;-75
2022/04/18 08:29:49;;;;;;;0.80;0.55;;;14.90;56.40;;;;;;5037016;28;20113;-74
2022/04/18 08:32:15;;;;;;;3.10;1.13;;;14.80;57.20;;;;;;5054685;28;20043;-75
2022/04/18 08:34:40;;;;;;;1.20;0.40;;;14.70;57.20;;;;;;5055238;28;20462;-75
2022/04/18 08:37:07;;;;;;;0.90;0.35;;;14.70;57.50;;;;;;5054808;28;20083;-75
2022/04/18 08:39:33;;;;;;;2.50;0.60;;;14.70;57.00;;;;;;5036765;28;20111;-76
2022/04/18 08:41:59;;;;;;;1.20;0.47;;;14.60;57.10;;;;;;5054413;28;20124;-75
2022/04/18 08:44:26;;;;;;;1.67;0.40;;;14.70;57.40;;;;;;5055226;28;20028;-75
2022/04/18 08:46:52;;;;;;;2.28;0.45;;;14.90;58.30;;;;;;5054814;28;20116;-75
2022/04/18 08:54:49;;;;;;;1.98;0.30;;;15.40;54.80;;;;;;5054639;28;20563;-74
2022/04/18 08:57:15;;;;;;;2.08;0.57;;;15.60;54.80;;;;;;5054665;28;20029;-74
2022/04/18 08:59:40;;;;;;;0.70;0.30;;;15.70;53.70;;;;;;5054841;28;20052;-74
2022/04/18 09:02:06;;;;;;;1.23;0.52;;;15.80;53.70;;;;;;5054024;28;20036;-75
2022/04/18 09:04:32;;;;;;;0.85;0.25;;;15.90;52.60;;;;;;5054407;28;20087;-75
2022/04/18 09:07:14;;;;;;;2.95;0.77;;;15.90;52.70;;;;;;5054300;28;20502;-72
2022/04/18 09:09:40;;;;;;;12.55;1.20;;;15.90;54.00;;;;;;5054104;28;20124;-72
2022/04/18 09:12:19;;;;;;;1.60;0.25;;;15.90;52.80;;;;;;5053997;28;20108;-73
2022/04/18 09:14:48;;;;;;;2.83;0.50;;;15.90;53.50;;;;;;5054091;28;20020;-73
2022/04/18 09:17:30;;;;;;;2.67;0.20;;;15.90;54.20;;;;;;5054007;28;20104;-74
2022/04/18 09:20:28;;;;;;;0.55;0.30;;;16.00;52.40;;;;;;5054002;28;20029;-74
2022/04/18 09:22:53;;;;;;;3.80;0.20;;;16.00;51.20;;;;;;5009523;28;20136;-73
2022/04/18 09:25:20;;;;;;;0.88;0.40;;;16.10;52.40;;;;;;5053763;28;20099;-75
2022/04/18 09:27:57;;;;;;;1.60;0.20;;;16.10;50.70;;;;;;5054333;28;20021;-75
2022/04/18 09:30:24;;;;;;;0.88;0.35;;;16.20;51.10;;;;;;5053825;28;20044;-75
2022/04/18 09:33:07;;;;;;;0.50;0.20;;;16.30;49.80;;;;;;5053902;28;20052;-74
2022/04/18 09:35:35;;;;;;;1.08;0.43;;;16.50;50.50;;;;;;5053939;28;20028;-73
2022/04/18 09:38:06;;;;;;;2.50;0.30;;;16.60;50.40;;;;;;5053611;28;20097;-73
2022/04/18 09:40:33;;;;;;;0.70;0.20;;;16.70;48.60;;;;;;5036226;28;20021;-78
2022/04/18 09:42:59;;;;;;;4.68;0.20;;;16.70;47.80;;;;;;5054846;28;20040;-77
2022/04/18 09:45:25;;;;;;;0.98;0.13;;;16.70;49.40;;;;;;5036812;28;20021;-78
2022/04/18 09:47:56;;;;;;;0.32;0.17;;;16.90;50.10;;;;;;5036311;28;20020;-78
2022/04/18 09:53:35;;;;;;;0.47;0.10;;;17.20;48.90;;;;;;5054130;28;20400;-77
2022/04/18 09:56:00;;;;;;;1.92;0.17;;;17.40;49.40;;;;;;5052984;28;20032;-73
2022/04/18 09:58:26;;;;;;;1.60;0.43;;;17.60;48.10;;;;;;5035333;28;20501;-73
2022/04/18 10:00:52;;;;;;;0.73;0.10;;;17.70;47.70;;;;;;5053694;28;20029;-73
2022/04/18 10:03:19;;;;;;;2.17;0.20;;;17.70;46.80;;;;;;5035271;28;20013;-73
2022/04/18 10:05:47;;;;;;;1.52;0.15;;;17.90;46.80;;;;;;5030330;28;20029;-73
2022/04/18 10:08:13;;;;;;;0.85;0.30;;;17.80;46.70;;;;;;5031736;28;20021;-73
2022/04/18 10:10:41;;;;;;;1.33;0.52;;;18.00;45.40;;;;;;5033007;28;20073;-73
2022/04/18 10:13:08;;;;;;;0.75;0.38;;;18.00;45.70;;;;;;5033170;28;20414;-71
2022/04/18 10:15:35;;;;;;;1.85;0.10;;;18.10;45.70;;;;;;5033207;28;20034;-71
2022/04/18 10:18:03;;;;;;;1.27;0.35;;;18.20;46.00;;;;;;5033173;28;20075;-71
2022/04/18 10:20:31;;;;;;;1.85;0.10;;;18.40;45.80;;;;;;5015285;28;20096;-73
2022/04/18 10:22:59;;;;;;;0.65;0.17;;;18.50;45.40;;;;;;5032972;28;20061;-73
2022/04/18 10:25:44;;;;;;;1.55;0.40;;;18.40;44.70;;;;;;5033029;28;20026;-74
2022/04/18 10:28:14;;;;;;;0.43;0.17;;;18.50;44.50;;;;;;5032872;28;20037;-73
2022/04/18 10:30:51;;;;;;;2.88;0.20;;;18.70;45.80;;;;;;5032879;28;20057;-73
2022/04/18 10:33:17;;;;;;;2.15;0.35;;;18.90;44.80;;;;;;5017636;28;20037;-73
2022/04/18 10:36:01;;;;;;;2.05;0.60;;;19.10;44.20;;;;;;5036994;28;20471;-73
2022/04/18 10:38:27;;;;;;;0.30;0.15;;;19.30;43.20;;;;;;5036963;28;20022;-73
2022/04/18 10:43:59;;;;;;;1.15;0.20;;;19.20;42.20;;;;;;5037566;28;20099;-73
2022/04/18 10:46:25;;;;;;;0.30;0.00;;;19.20;42.10;;;;;;5020910;28;20116;-73
2022/04/18 10:48:58;;;;;;;1.05;0.10;;;19.30;41.20;;;;;;5036774;28;20112;-73
2022/04/18 10:51:38;;;;;;;0.95;0.28;;;19.50;40.90;;;;;;5036493;28;20025;-74
2022/04/18 10:54:08;;;;;;;0.30;0.10;;;19.50;39.40;;;;;;5036581;28;20053;-74
2022/04/18 10:56:52;;;;;;;0.90;0.10;;;19.50;39.50;;;;;;5036796;28;20029;-73
2022/04/18 10:59:20;;;;;;;2.40;0.10;;;19.60;41.60;;;;;;5036277;28;20453;-73
2022/04/18 11:01:48;;;;;;;1.50;0.23;;;19.80;38.90;;;;;;5018560;28;20108;-75
2022/04/18 11:04:14;;;;;;;0.55;0.10;;;19.90;40.50;;;;;;5036438;28;20014;-75
2022/04/18 11:06:40;;;;;;;1.13;0.10;;;19.90;39.90;;;;;;5018577;28;20025;-74
2022/04/18 11:09:11;;;;;;;0.45;0.00;;;19.70;38.70;;;;;;5018320;28;20191;-75
2022/04/18 11:12:00;;;;;;;1.95;0.13;;;19.70;41.10;;;;;;5036103;28;20033;-75
2022/04/18 11:14:29;;;;;;;2.72;0.20;;;19.80;40.70;;;;;;5036583;28;20032;-74
2022/04/18 11:17:01;;;;;;;0.63;0.15;;;19.90;39.80;;;;;;5018394;28;20022;-75
2022/04/18 11:19:40;;;;;;;1.48;0.63;;;19.90;39.20;;;;;;5035809;28;20083;-75
2022/04/18 11:22:17;;;;;;;0.68;0.22;;;20.10;39.60;;;;;;5018604;28;20049;-74
2022/04/18 11:24:49;;;;;;;2.47;0.52;;;20.10;38.40;;;;;;5036250;28;20031;-74
2022/04/18 11:27:32;;;;;;;0.45;0.00;;;20.30;39.40;;;;;;5018121;28;20021;-74
2022/04/18 11:30:09;;;;;;;0.68;0.20;;;20.50;37.20;;;;;;5017877;28;20474;-74
2022/04/18 11:32:40;;;;;;;0.93;0.20;;;20.70;37.10;;;;;;5036160;28;20063;-74
2022/04/18 11:35:09;;;;;;;0.70;0.22;;;20.70;38.00;;;;;;5018073;28;20037;-74
2022/04/18 11:37:43;;;;;;;1.00;0.10;;;20.60;37.70;;;;;;5035715;28;20022;-74
2022/04/18 11:40:14;;;;;;;0.55;0.20;;;20.50;37.40;;;;;;5017902;28;20030;-74
2022/04/18 11:42:40;;;;;;;1.50;0.00;;;20.50;38.20;;;;;;5035692;28;20048;-74
2022/04/18 11:45:20;;;;;;;0.20;0.00;;;20.80;36.10;;;;;;5035472;28;20022;-74
2022/04/18 11:47:47;;;;;;;2.35;0.47;;;21.00;37.60;;;;;;5035836;28;20087;-74
2022/04/18 11:50:21;;;;;;;0.57;0.00;;;21.20;36.50;;;;;;5035517;28;20097;-74
2022/04/18 11:52:49;;;;;;;3.60;0.10;;;21.40;36.30;;;;;;5035451;28;20036;-74
2022/04/18 11:55:17;;;;;;;2.47;0.10;;;21.60;36.20;;;;;;5035446;28;20025;-74
2022/04/18 11:57:47;;;;;;;0.20;0.00;;;21.80;35.10;;;;;;5035558;28;20064;-74
2022/04/18 12:08:47;;;;;;;0.45;0.10;;;22.30;34.00;;;;;;5056000;28;20031;-74
2022/04/18 12:11:13;;;;;;;0.40;0.20;;;22.40;34.40;;;;;;5055594;28;20029;-76
2022/04/18 12:13:45;;;;;;;1.42;0.10;;;22.50;34.00;;;;;;5055631;28;20462;-74
2022/04/18 12:16:12;;;;;;;1.23;0.10;;;22.70;33.40;;;;;;5051887;28;20013;-74
2022/04/18 12:18:38;;;;;;;0.20;0.00;;;22.70;33.30;;;;;;5039303;28;20029;-74
2022/04/18 12:21:03;;;;;;;1.02;0.10;;;22.80;33.90;;;;;;5034928;28;20075;-74
2022/04/18 12:23:29;;;;;;;0.75;0.00;;;22.90;33.20;;;;;;5039117;28;20036;-74
2022/04/18 12:25:56;;;;;;;0.30;0.00;;;23.10;32.10;;;;;;5036669;28;20039;-74
2022/04/18 12:28:24;;;;;;;0.25;0.10;;;23.10;32.60;;;;;;5029607;28;20040;-74
2022/04/18 12:30:50;;;;;;;5.07;0.33;;;23.20;32.40;;;;;;5032735;28;20445;-74
2022/04/18 12:33:21;;;;;;;1.30;0.10;;;23.00;31.80;;;;;;5053327;28;20127;-74
2022/04/18 12:35:51;;;;;;;1.05;0.30;;;22.80;33.40;;;;;;5036773;28;20028;-74
2022/04/18 12:38:18;;;;;;;0.30;0.10;;;23.10;34.30;;;;;;5054582;28;20033;-74
2022/04/18 12:40:46;;;;;;;0.43;0.10;;;23.00;33.00;;;;;;5054034;28;20414;-74
2022/04/18 12:43:16;;;;;;;0.17;0.00;;;23.00;33.50;;;;;;5035926;28;20367;-76
2022/04/18 12:45:52;;;;;;;0.05;0.00;;;23.30;33.50;;;;;;5054511;28;20025;-76
2022/04/18 12:48:28;;;;;;;0.68;0.10;;;23.70;32.20;;;;;;5054370;28;20064;-76
2022/04/18 12:50:56;;;;;;;0.43;0.10;;;23.80;31.80;;;;;;5054095;28;20029;-76
2022/04/18 12:53:42;;;;;;;0.32;0.08;;;24.00;30.70;;;;;;5054384;28;20079;-74
2022/04/18 12:56:08;;;;;;;0.30;0.10;;;24.00;30.00;;;;;;5053252;28;20087;-74
2022/04/18 12:58:41;;;;;;;0.30;0.20;;;24.00;30.80;;;;;;5054297;28;20033;-74
2022/04/18 13:01:20;;;;;;;0.20;0.10;;;24.10;30.30;;;;;;5054115;28;20047;-74
2022/04/18 13:03:46;;;;;;;0.50;0.10;;;23.70;31.40;;;;;;5054284;28;20100;-74
2022/04/18 13:06:11;;;;;;;0.10;0.00;;;23.30;31.10;;;;;;5054245;28;20100;-74
2022/04/18 13:08:38;;;;;;;3.45;0.15;;;23.30;32.40;;;;;;5054219;28;20020;-74
2022/04/18 13:11:05;;;;;;;0.75;0.30;;;23.60;33.50;;;;;;5036127;28;20021;-74
2022/04/18 13:13:31;;;;;;;1.70;0.30;;;23.60;33.10;;;;;;5054025;28;20032;-76
2022/04/18 13:15:57;;;;;;;2.20;0.60;;;23.70;34.20;;;;;;5054138;28;20593;-73
2022/04/18 13:18:26;;;;;;;2.22;0.40;;;23.90;33.70;;;;;;5053859;28;20061;-73
2022/04/18 13:20:52;;;;;;;1.73;0.47;;;24.00;33.50;;;;;;5053758;28;20043;-73
2022/04/18 13:23:18;;;;;;;0.75;0.20;;;24.20;33.20;;;;;;5052624;28;20041;-73
2022/04/18 13:25:45;;;;;;;0.77;0.35;;;24.50;32.70;;;;;;5035881;28;20024;-73
2022/04/18 13:28:11;;;;;;;0.85;0.15;;;24.60;34.70;;;;;;5035753;28;20055;-73
2022/04/18 13:30:39;;;;;;;2.30;0.20;;;24.90;33.40;;;;;;5052700;28;20042;-73